Lebanon, MO

4:35 PM CDT on August 20, 2014 (GMT -0500)
Camdenton | Change Station
CLOSE
Current Station
Airport
Location: Camdenton,
Elevation: 1063 ft
Nearby Weather Stations

Elev 1063 ft 37.97 °N, 92.69 °W | Updated 20 minutes ago

Mostly Cloudy
Mostly Cloudy
88 °F
Feels Like 93 °F
N
4
Wind Variable Wind from WSW

Today
High -- | Low -- °F
--% Chance of Precip.
Yesterday
High -- | Low -- °F
Precip. -- in
6:30 AM 7:56 PM
Waning Crescent, 19% visible
Pressure 29.93 in
Visibility 10.0 miles
Clouds Scattered Clouds 6000 ft
Mostly Cloudy 7000 ft
Mostly Cloudy 9000 ft
Heat Index 93 °F
Dew Point 70 °F
Humidity 55%
Rainfall 0.00 in
Snow Depth Not available.
UV 3 out of 12
Pollen 10.30 out of 12
Air Quality Not available.
Flu Activity Not available.
METAR KH21 202115Z AUTO 24003KT 10SM SCT060 BKN070 BKN090 31/21 A2993 RMK AO2 LTG DSNT S

More Conditions Fewer Conditions

Pressure 29.93 in
Visibility 10.0 miles
Clouds Scattered Clouds 6000 ft
Mostly Cloudy 7000 ft
Mostly Cloudy 9000 ft
Heat Index 93 °F
Dew Point 70 °F
Humidity 55%
Rainfall 0.00 in
Snow Depth Not available.
UV 3 out of 12
Pollen 10.30 out of 12
Air Quality Not available.
Flu Activity Not available.
METAR KH21 202115Z AUTO 24003KT 10SM SCT060 BKN070 BKN090 31/21 A2993 RMK AO2 LTG DSNT S

More Conditions Fewer Conditions

10-Day Weather Forecast

Almanac

Astronomy

Aug. 20, 2014 Rise Set
Actual Time 6:30 AM CDT 7:56 PM CDT
Civil Twilight 6:03 AM CDT 8:24 PM CDT
Nautical Twilight 5:29 AM CDT 8:57 PM CDT
Astronomical Twilight 4:55 AM CDT 9:31 PM CDT
Moon 2:12 AM CDT 4:40 PM CDT
Length of Visible Light 14h 21m
Length of Day
13h 26m
Tomorrow will be 2m 11s shorter.
Waning Crescent, 19% of the Moon is Illuminated
Today
Waning Crescent
Aug 25
New
Sep 2
First Quarter
Sep 8
Full
Sep 15
Last Quarter

Today's Extremes

State Highs State Lows

Community

WunderPhotos

Upload Photos

1,745,763 photos uploaded!

WunderBlogs® & News

Nearby

Snow Depth

Station Depth Elevation
No new snow has been reported.

Earthquake Activity

City Distance Mag. Time & Date
No recent earthquake activity has been reported nearby.
Minimum magnitude displayed is 2.5.

Coastal Water Temperatures

Place Temperature
No Stations Reporting

Nearby Weather Stations